Cocopelli — PB7752 — position and weather

sailwx.info

Track history (hours):
 
Tides and Currents Weather Stations Pressure Air Temp Water Temp Dewpoint Dewpoint Depression Visibility Wind Speed Wind Dir Waves Ship Positions

Cocopelli

Last reported at 2017-Aug-20 13:54 UTC. Time now 2017-Aug-22 05:28 UTC.
Position N 52°46' E 005°07'.

Length 15 m.

Type: Sailing vessel. MMSI: 244730543.

Date/timePositionNaut miles runAvg speedWind from/ knotsBaromVisibWave heightAir tempDewpointWater temp
2017-Aug-20 13:54N 52°46' E 005°07'0 0.8
2017-Aug-20 13:31N 52°46' E 005°07'4 7.2
2017-Aug-20 13:00N 52°50' E 005°09'4 7.3
2017-Aug-20 12:31N 52°53' E 005°12'4 7.1
2017-Aug-20 12:00N 52°56' E 005°16'4 7.2
2017-Aug-20 11:30N 52°59' E 005°18'3 6.6
2017-Aug-20 11:00N 52°56' E 005°20'1 2.8
2017-Aug-20 10:30N 52°55' E 005°19'4 7.4
2017-Aug-20 10:00N 52°51' E 005°16'3 6.9
2017-Aug-20 09:30N 52°49' E 005°13'4 7.2
2017-Aug-20 09:00N 52°47' E 005°08'  
Track history (hours):
 
Tides and Currents Weather Stations Pressure Air Temp Water Temp Dewpoint Dewpoint Depression Visibility Wind Speed Wind Dir Waves Ship Positions

Cocopelli

Last reported at 2017-Aug-20 13:54 UTC. Time now 2017-Aug-22 05:28 UTC.
Position N 52°46' E 005°07'.

Length 15 m.

Type: Sailing vessel. MMSI: 244730543.

Date/timePositionNaut miles runAvg speedWind from/ knotsBaromVisibWave heightAir tempDewpointWater temp
2017-Aug-20 13:54N 52°46' E 005°07'0 0.8
2017-Aug-20 13:31N 52°46' E 005°07'4 7.2
2017-Aug-20 13:00N 52°50' E 005°09'4 7.3
2017-Aug-20 12:31N 52°53' E 005°12'4 7.1
2017-Aug-20 12:00N 52°56' E 005°16'4 7.2
2017-Aug-20 11:30N 52°59' E 005°18'3 6.6
2017-Aug-20 11:00N 52°56' E 005°20'1 2.8
2017-Aug-20 10:30N 52°55' E 005°19'4 7.4
2017-Aug-20 10:00N 52°51' E 005°16'3 6.9
2017-Aug-20 09:30N 52°49' E 005°13'4 7.2
2017-Aug-20 09:00N 52°47' E 005°08'  

Dump ship's entire track history